Latest Coastal Weather Observations for Pirlangimpi (Garden Point)

IDD60701

Issued at 6:31 am CST Tuesday 24 January 2017 (issued every 10 minutes, with the page automatically refreshed every 10 minutes)

About coastal observations | Map of coastal stations | Coastal observations for NT | Marine services | Other Formats
Station Details ID: 014142 Name: PIRLANGIMPI AIRPORT Lat: -11.40 Lon: 130.42 Height: 18.3 m
Data from the previous 72 hours. | See also: Recent months at Pirlangimpi (Garden Point)
Date/Time
CST
Temp
°C
Wind Pressure Rain since
9am
mm
Weather Cloud Vis
km
Sea
Height
m
Swell
Dir  Spd
kts
Gust
kts
hPa Trend Height
m
Period
s
Dir
24/06:30am 25.6 NW 8 17 1007.1 - 78.4 - - - - - - -
24/06:00am 25.8 NW 6 14 1006.8 - 77.0 Rain - - - - - -
24/05:30am 24.7 NE 2 5 1006.6 - 75.6 - - - - - - -
24/05:00am 24.7 W 6 16 1006.3 - 75.0 - - - - - - -
24/04:30am 26.7 W 3 6 1006.1 - 65.8 - - - - - - -
24/04:00am 25.6 NW 7 19 1006.3 - 65.6 - - - - - - -
24/03:30am 26.4 NW 4 8 1006.3 - 65.4 - - - - - - -
24/03:00am 25.6 W 2 4 1006.3 - 63.6 - - - - - - -
24/02:30am 24.1 NNW 2 4 1006.4 - 63.6 - - - - - - -
24/02:00am 23.7 CALM 0 2 1006.5 - 63.6 - - - - - - -
24/01:30am 23.6 CALM 0 0 1007.1 - 63.4 - - - - - - -
24/01:00am 23.8 NW 2 6 1008.0 - 63.0 - - - - - - -
24/12:30am 24.8 SSW 5 9 1008.3 - 56.6 - - - - - - -
24/12:00am 26.0 WSW 4 9 1008.2 - 52.0 - - - - - - -
 
Date/Time
CST
Temp
°C
Wind Pressure Rain since
9am
mm
Weather Cloud Vis
km
Sea
Height
m
Swell
Dir  Spd
kts
Gust
kts
hPa Trend Height
m
Period
s
Dir
23/11:30pm 27.0 WNW 3 6 1008.5 - 52.0 - - - - - - -
23/11:00pm 26.8 NW 3 7 1008.8 - 52.0 - - - - - - -
23/10:30pm 27.3 WNW 4 12 1008.6 - 52.0 - - - - - - -
23/10:00pm 26.8 WNW 2 5 1008.2 - 52.0 - - - - - - -
23/09:30pm 26.7 WNW 3 6 1007.8 - 52.0 - - - - - - -
23/09:00pm 26.6 WNW 3 7 1007.5 - 52.0 - - - - - - -
23/08:30pm 26.2 WNW 3 7 1007.4 - 52.0 - - - - - - -
23/08:00pm 25.8 WSW 3 8 1007.3 - 52.0 - - - - - - -
23/07:30pm 25.3 WSW 1 4 1007.0 - 52.0 - - - - - - -
23/07:00pm 25.1 W 2 3 1006.4 - 52.0 - - - - - - -
23/06:30pm 25.0 SW 2 4 1006.3 - 52.0 - - - - - - -
23/06:00pm 25.0 SW 4 6 1006.0 - 52.0 Rain - - - - - -
23/05:30pm 25.0 W 5 8 1005.7 - 51.8 - - - - - - -
23/05:00pm 24.8 W 4 9 1005.4 - 51.6 - - - - - - -
23/04:30pm 24.6 W 4 11 1005.6 - 51.2 - - - - - - -
23/04:00pm 24.4 W 4 9 1006.2 - 51.0 - - - - - - -
23/03:30pm 24.2 WSW 5 10 1006.6 - 51.0 - - - - - - -
23/03:00pm 24.1 W 5 10 1007.0 - 50.4 Rain - - - - - -
23/02:30pm 23.6 SW 3 6 1007.1 - 48.0 - - - - - - -
23/02:00pm 24.1 SW 6 13 1007.2 - 46.6 - - - - - - -
23/01:30pm 24.3 SW 5 15 1008.1 - 39.8 - - - - - - -
23/01:00pm 24.3 CALM 0 1 1007.5 - 31.6 - - - - - - -
23/12:30pm 23.8 WSW 3 7 1008.3 - 26.6 - - - - - - -
23/12:00pm 24.6 SW 6 11 1008.5 - 18.2 Rain - - - - - -
23/11:30am 25.1 SW 5 9 1008.7 - 13.2 - - - - - - -
23/11:00am 25.9 NW 5 10 1008.8 - 12.6 - - - - - - -
23/10:30am 25.2 NW 2 5 1009.1 - 12.4 - - - - - - -
23/10:00am 24.9 NW 3 6 1009.5 - 10.4 - - - - - - -
23/09:30am 24.4 NNW 4 8 1009.4 - 5.0 - - - - - - -
23/09:00am 24.6 NNE 1 3 1009.1 - 30.4 Rain - - - - - -
23/08:30am 24.4 WSW 1 3 1008.9 - 29.2 - - - - - - -
23/08:00am 24.1 NW 1 4 1007.9 - 27.4 - - - - - - -
23/07:30am 23.8 W 3 8 1007.8 - 26.0 - - - - - - -
23/07:00am 24.0 SSW 9 13 1007.7 - 23.0 - - - - - - -
23/06:30am 26.0 SW 2 15 1007.1 - 17.4 - - - - - - -
23/06:00am 26.4 WSW 1 6 1006.4 - 15.6 Rain - - - - - -
23/05:30am 26.9 NW 2 3 1005.9 - 15.0 - - - - - - -
23/05:00am 27.7 NW 2 6 1006.0 - 14.0 - - - - - - -
23/04:30am 27.6 WNW 3 6 1005.9 - 14.0 - - - - - - -
23/04:00am 27.7 WNW 3 7 1005.7 - 14.0 - - - - - - -
23/03:30am 27.4 NW 3 5 1005.9 - 14.0 - - - - - - -
23/03:00am 27.2 WNW 2 4 1006.5 - 14.0 - - - - - - -
23/02:30am 27.3 WNW 3 6 1006.7 - 14.0 - - - - - - -
23/02:00am 27.1 NW 3 8 1006.9 - 14.0 - - - - - - -
23/01:30am 26.9 NW 3 6 1007.6 - 14.0 - - - - - - -
23/01:00am 26.3 NNW 2 6 1007.8 - 14.0 - - - - - - -
23/12:30am 25.7 CALM 0 0 1008.1 - 14.0 - - - - - - -
23/12:00am 25.8 CALM 0 1 1008.7 - 14.0 Rain - - - - - -
 
Date/Time
CST
Temp
°C
Wind Pressure Rain since
9am
mm
Weather Cloud Vis
km
Sea
Height
m
Swell
Dir  Spd
kts
Gust
kts
hPa Trend Height
m
Period
s
Dir
22/11:30pm 25.4 CALM 0 0 1009.2 - 13.8 - - - - - - -
22/11:00pm 25.6 NNW 1 4 1009.5 - 13.8 - - - - - - -
22/10:30pm 26.2 CALM 0 2 1009.3 - 13.0 - - - - - - -
22/10:00pm 25.9 CALM 0 3 1009.2 - 13.0 - - - - - - -
22/09:30pm 25.5 CALM 0 0 1008.7 - 12.0 - - - - - - -
22/09:00pm 25.6 NW 4 11 1008.9 - 12.0 Rain - - - - - -
22/08:30pm 25.5 CALM 0 4 1008.6 - 11.6 - - - - - - -
22/08:00pm 25.6 SW 7 20 1009.1 - 8.6 - - - - - - -
22/07:30pm 27.4 NW 3 6 1008.0 - 5.6 - - - - - - -
22/07:00pm 27.1 NW 5 12 1007.8 - 5.6 - - - - - - -
22/06:30pm 26.8 NW 8 13 1007.6 - 5.6 - - - - - - -
22/06:00pm 27.2 W 3 7 1006.5 - 5.6 Recent precip. - - - - - -
22/05:30pm 28.1 W 5 10 1006.3 - 5.2 - - - - - - -
22/05:00pm 28.3 WNW 2 5 1006.3 - 5.0 - - - - - - -
22/04:30pm 29.0 WNW 6 13 1006.1 - 4.8 - - - - - - -
22/04:00pm 28.5 WNW 4 8 1006.2 - 4.8 - - - - - - -
22/03:30pm 28.9 WNW 4 9 1006.5 - 4.4 - - - - - - -
22/03:00pm 28.4 WNW 5 11 1006.8 - 4.2 Rain - - - - - -
22/02:30pm 30.1 WNW 6 14 1007.0 - 3.4 - - - - - - -
22/02:00pm 30.5 W 5 11 1007.1 - 3.2 - - - - - - -
22/01:30pm 29.2 WSW 2 6 1007.7 - 3.2 - - - - - - -
22/01:00pm 30.3 WNW 5 11 1008.4 - 1.0 - - - - - - -
22/12:30pm 30.1 W 3 8 1008.9 - 0.8 - - - - - - -
22/12:00pm 30.9 W 5 10 1009.1 - 0.0 - - - - - - -
22/11:30am 31.7 W 4 12 1009.0 - 0.0 - - - - - - -
22/11:00am 31.4 W 5 8 1009.1 - 0.0 - - - - - - -
22/10:30am 31.1 WSW 4 9 1009.4 - 0.0 - - - - - - -
22/10:00am 31.4 W 4 8 1009.5 - 0.0 - - - - - - -
22/09:30am 30.5 W 4 6 1009.5 - 0.0 - - - - - - -
22/09:00am 29.5 W 2 5 1009.7 - 0.2 - - - - - - -
22/08:30am 28.7 WNW 1 3 1009.7 - 0.2 - - - - - - -
22/08:00am 28.1 W 1 3 1009.7 - 0.2 - - - - - - -
22/07:30am 27.7 WNW 1 3 1009.6 - 0.2 - - - - - - -
22/07:00am 27.5 WSW 2 4 1009.5 - 0.2 - - - - - - -
22/06:30am 27.5 W 2 4 1009.0 - 0.2 - - - - - - -
22/06:00am 27.4 WNW 1 5 1008.7 - 0.2 - - - - - - -
22/05:30am 27.5 W 2 5 1008.5 - 0.2 - - - - - - -
22/05:00am 27.4 W 2 4 1008.5 - 0.2 - - - - - - -
22/04:30am 27.4 WSW 2 4 1008.6 - 0.2 - - - - - - -
22/04:00am 27.2 W 2 4 1008.6 - 0.2 - - - - - - -
22/03:30am 27.1 W 2 6 1008.7 - 0.2 - - - - - - -
22/03:00am 27.6 W 2 5 1008.8 - 0.0 - - - - - - -
22/02:30am 27.6 W 2 4 1008.8 - 0.0 - - - - - - -
22/02:00am 27.6 CALM 0 2 1009.1 - 0.0 - - - - - - -
22/01:30am 27.6 WNW 1 3 1009.3 - 0.0 - - - - - - -
22/01:00am 27.6 W 1 4 1009.7 - 0.0 - - - - - - -
22/12:30am 27.6 WSW 1 2 1010.1 - 0.0 - - - - - - -
22/12:00am 27.5 CALM 0 2 1010.3 - 0.0 - - - - - - -
 
Date/Time
CST
Temp
°C
Wind Pressure Rain since
9am
mm
Weather Cloud Vis
km
Sea
Height
m
Swell
Dir  Spd
kts
Gust
kts
hPa Trend Height
m
Period
s
Dir
21/11:30pm 27.7 CALM 0 2 1010.4 - 0.0 - - - - - - -
21/11:00pm 27.8 WSW 1 3 1010.6 - 0.0 - - - - - - -
21/10:30pm 27.9 WNW 1 2 1010.5 - 0.0 - - - - - - -
21/10:00pm 28.0 W 1 3 1010.2 - 0.0 - - - - - - -
21/09:30pm 28.0 W 1 4 1010.1 - 0.0 - - - - - - -
21/09:00pm 28.1 WNW 2 5 1009.9 - 0.0 - - - - - - -
21/08:30pm 28.1 WNW 1 3 1009.8 - 0.0 - - - - - - -
21/08:00pm 28.1 WNW 2 4 1009.5 - 0.0 - - - - - - -
21/07:30pm 27.9 WNW 1 3 1009.1 - 0.0 - - - - - - -
21/07:00pm 28.2 CALM 0 1 1008.9 - 0.0 - - - - - - -
21/06:30pm 28.4 WNW 2 4 1008.5 - 0.0 - - - - - - -
21/06:00pm 28.5 WNW 3 6 1008.3 - 0.0 - - - - - - -
21/05:30pm 28.6 W 2 5 1007.7 - 0.0 - - - - - - -
21/05:00pm 28.5 NW 4 10 1007.6 - 0.0 - - - - - - -
21/04:30pm 29.7 WSW 4 9 1007.3 - 0.0 - - - - - - -
21/04:00pm 29.7 WNW 3 5 1007.4 - 0.0 - - - - - - -
21/03:30pm 29.5 WNW 3 6 1007.6 - 0.0 - - - - - - -
21/03:00pm 29.4 WNW 3 5 1008.0 - 0.0 - - - - - - -
21/02:30pm 29.5 WNW 3 5 1008.2 - 0.0 - - - - - - -
21/02:00pm 29.6 WNW 1 7 1008.7 - 0.0 - - - - - - -
21/01:30pm 29.7 W 2 4 1008.9 - 0.0 - - - - - - -
21/01:00pm 30.0 WSW 3 5 1009.1 - 0.0 - - - - - - -
21/12:30pm 29.3 SW 3 6 1009.3 - 0.0 - - - - - - -
21/12:00pm 30.0 SSW 7 10 1009.9 - 0.0 - - - - - - -
21/11:30am 29.1 SSW 6 12 1010.2 - 0.0 - - - - - - -
21/11:00am 31.4 NW 1 2 1010.4 - 0.0 - - - - - - -
21/10:30am 31.2 SW 1 3 1010.7 - 0.0 - - - - - - -
21/10:00am 29.9 SW 3 5 1010.6 - 0.0 - - - - - - -
21/09:30am 29.2 SSW 4 5 1010.8 - 0.0 - - - - - - -
21/09:00am 29.3 SSW 3 5 1010.5 - 10.0 - - - - - - -
21/08:30am 28.8 WSW 2 3 1010.5 - 10.0 - - - - - - -
21/08:00am 27.8 WSW 1 3 1010.1 - 10.0 - - - - - - -
21/07:30am 26.1 CALM 0 1 1009.9 - 10.0 - - - - - - -
21/07:00am 25.4 NNE 1 2 1009.7 - 10.0 - - - - - - -

Other Formats:

Comma delimited format used in spreadsheet applications
http://www.bom.gov.au/fwo/IDD60701/IDD60701.94119.axf

JavaScript Object Notation format (JSON) in row-major order
http://www.bom.gov.au/fwo/IDD60701/IDD60701.94119.json